Time;durP1;ratioP1;P1;durP2;ratioP2;P2;SDS_P1;SDS_P2;PMS_P1;PMS_P2;Temp;Humidity;BMP_temperature;BMP_pressure;BME280_temperature;BME280_humidity;BME280_pressure;Samples;Min_cycle;Max_cycle;Signal;HPM_P1;HPM_P2
2023/04/06 00:01:00;;;;;;;0.60;0.60;;;;;;;-0.79;81.09;101076.84;5027258;28;20055;-66
2023/04/06 00:03:26;;;;;;;0.50;0.50;;;;;;;-0.87;81.01;101071.38;5044944;28;20029;-67
2023/04/06 00:05:51;;;;;;;0.50;0.50;;;;;;;-0.85;80.82;101077.44;5045185;28;20053;-67
2023/04/06 00:08:17;;;;;;;0.60;0.60;;;;;;;-0.86;80.92;101075.66;5045202;28;20026;-68
2023/04/06 00:10:42;;;;;;;0.50;0.50;;;;;;;-0.91;80.81;101072.03;5045167;28;20040;-67
2023/04/06 00:13:08;;;;;;;0.60;0.60;;;;;;;-0.91;80.91;101075.44;5045169;28;20021;-67
2023/04/06 00:15:34;;;;;;;0.50;0.50;;;;;;;-1.03;80.93;101054.44;5027308;28;20071;-66
2023/04/06 00:18:00;;;;;;;0.50;0.50;;;;;;;-0.93;80.83;101066.84;5045872;28;20029;-67
2023/04/06 00:20:25;;;;;;;0.60;0.60;;;;;;;-0.98;80.96;101070.84;5045346;28;20036;-68
2023/04/06 00:22:51;;;;;;;0.50;0.50;;;;;;;-1.02;81.16;101067.25;5044861;28;20025;-66
2023/04/06 00:25:16;;;;;;;0.60;0.60;;;;;;;-1.15;81.10;101052.19;5045064;28;20025;-67
2023/04/06 00:27:42;;;;;;;0.60;0.60;;;;;;;-1.08;81.02;101066.97;5045010;28;20022;-67
2023/04/06 00:30:08;;;;;;;0.60;0.60;;;;;;;-1.08;80.92;101069.50;5044732;28;20036;-67
2023/04/06 00:32:35;;;;;;;0.52;0.52;;;;;;;-1.09;80.86;101069.44;5043731;28;20021;-66
2023/04/06 00:35:05;;;;;;;0.60;0.60;;;;;;;-1.10;80.79;101065.16;5027205;28;20432;-67
2023/04/06 00:37:31;;;;;;;0.52;0.52;;;;;;;-1.13;80.85;101058.19;5044876;28;20052;-67
2023/04/06 00:39:56;;;;;;;0.60;0.60;;;;;;;-1.20;80.95;101057.03;5045091;28;20106;-68
2023/04/06 00:42:25;;;;;;;0.60;0.60;;;;;;;-1.14;80.62;101057.34;5026699;28;20042;-67
2023/04/06 00:45:01;;;;;;;0.60;0.60;;;;;;;-1.17;80.55;101067.38;5044622;28;20148;-67
2023/04/06 00:47:27;;;;;;;0.60;0.60;;;;;;;-1.21;80.77;101056.94;5044553;28;20045;-67
2023/04/06 00:49:53;;;;;;;0.60;0.60;;;;;;;-1.24;80.59;101052.56;5044750;28;20479;-67
2023/04/06 00:52:19;;;;;;;0.50;0.50;;;;;;;-1.23;80.68;101049.22;5044612;28;20021;-68
2023/04/06 00:54:45;;;;;;;0.60;0.60;;;;;;;-1.30;80.50;101042.97;5044819;28;20032;-67
2023/04/06 00:57:11;;;;;;;0.60;0.60;;;;;;;-1.26;80.38;101046.50;5044633;28;20025;-68
2023/04/06 00:59:37;;;;;;;0.52;0.52;;;;;;;-1.29;80.39;101052.34;5044777;28;20028;-67
2023/04/06 01:02:03;;;;;;;0.60;0.60;;;;;;;-1.30;80.53;101045.50;5044364;28;20120;-67
2023/04/06 01:04:28;;;;;;;0.60;0.60;;;;;;;-1.36;80.34;101040.09;5044508;28;20028;-67
2023/04/06 01:06:54;;;;;;;0.60;0.60;;;;;;;-1.32;80.33;101039.44;5044427;28;20021;-67
2023/04/06 01:09:19;;;;;;;0.55;0.55;;;;;;;-1.37;80.31;101040.88;5044604;28;20025;-68
2023/04/06 01:11:45;;;;;;;0.60;0.60;;;;;;;-1.36;80.22;101045.19;5026601;28;20021;-67
2023/04/06 01:14:10;;;;;;;0.50;0.50;;;;;;;-1.37;80.31;101046.84;5044327;28;20056;-67
2023/04/06 01:16:36;;;;;;;0.50;0.50;;;;;;;-1.35;80.22;101043.50;5026472;28;20036;-67
2023/04/06 01:19:09;;;;;;;0.50;0.50;;;;;;;-1.38;80.10;101046.78;5044427;28;20037;-67
2023/04/06 01:21:35;;;;;;;0.60;0.60;;;;;;;-1.39;80.16;101042.50;5044300;28;20040;-67
2023/04/06 01:24:01;;;;;;;0.60;0.60;;;;;;;-1.47;80.07;101025.94;5044138;28;20084;-67
2023/04/06 01:26:27;;;;;;;0.60;0.60;;;;;;;-1.43;80.00;101038.03;5044236;28;20032;-68
2023/04/06 01:28:52;;;;;;;0.50;0.50;;;;;;;-1.44;79.99;101043.94;5026444;28;20035;-67
2023/04/06 01:31:18;;;;;;;0.60;0.60;;;;;;;-1.45;80.07;101037.09;5043989;28;20045;-66
2023/04/06 01:33:43;;;;;;;0.50;0.50;;;;;;;-1.46;80.02;101030.22;5026169;28;20025;-66
2023/04/06 01:36:09;;;;;;;0.60;0.60;;;;;;;-1.52;80.21;101029.09;5026349;28;20037;-67
2023/04/06 01:38:34;;;;;;;0.60;0.60;;;;;;;-1.52;80.22;101028.25;5026180;28;20399;-68
2023/04/06 01:41:00;;;;;;;0.50;0.50;;;;;;;-1.50;80.21;101030.06;5043942;28;20026;-66
2023/04/06 01:43:25;;;;;;;0.60;0.60;;;;;;;-1.51;80.10;101033.44;5044237;28;20124;-66
2023/04/06 01:45:51;;;;;;;0.55;0.55;;;;;;;-1.53;79.91;101023.94;5047480;28;20048;-67
2023/04/06 01:48:16;;;;;;;0.60;0.60;;;;;;;-1.53;80.07;101032.47;5047679;28;20024;-67
2023/04/06 01:50:42;;;;;;;0.60;0.60;;;;;;;-1.56;79.98;101032.31;5029680;28;20109;-67
2023/04/06 01:53:07;;;;;;;0.60;0.60;;;;;;;-1.55;79.93;101036.59;5029642;28;20056;-67
2023/04/06 01:55:33;;;;;;;0.50;0.50;;;;;;;-1.56;80.12;101033.97;5047591;28;20117;-66
2023/04/06 01:57:58;;;;;;;0.52;0.52;;;;;;;-1.63;79.98;101018.38;5047734;28;20036;-66
2023/04/06 02:00:24;;;;;;;0.50;0.50;;;;;;;-1.55;79.91;101028.09;5047354;28;20021;-67
2023/04/06 02:02:50;;;;;;;0.60;0.60;;;;;;;-1.60;79.90;101025.31;5029348;28;20025;-66
2023/04/06 02:05:15;;;;;;;0.60;0.60;;;;;;;-1.64;80.07;101023.41;5047207;28;20029;-67
2023/04/06 02:07:40;;;;;;;0.50;0.50;;;;;;;-1.59;80.07;101024.50;5047335;28;20094;-67
2023/04/06 02:10:12;;;;;;;0.50;0.50;;;;;;;-1.57;79.74;101025.47;5047321;28;20031;-66
2023/04/06 02:12:37;;;;;;;0.70;0.70;;;;;;;-1.58;79.88;101027.94;5047540;28;20032;-67
2023/04/06 02:15:03;;;;;;;0.50;0.50;;;;;;;-1.59;79.87;101029.59;5047106;28;20026;-67
2023/04/06 02:17:29;;;;;;;0.60;0.60;;;;;;;-1.58;80.02;101028.81;5047132;28;20592;-67
2023/04/06 02:19:54;;;;;;;0.60;0.60;;;;;;;-1.60;80.05;101022.78;5047050;28;20022;-67
2023/04/06 02:22:20;;;;;;;0.55;0.55;;;;;;;-1.66;80.03;101009.72;5029117;28;20044;-66
2023/04/06 02:24:46;;;;;;;0.60;0.60;;;;;;;-1.58;79.98;101030.50;5046965;28;20032;-67
2023/04/06 02:27:12;;;;;;;0.60;0.60;;;;;;;-1.56;79.85;101031.41;5029104;28;20108;-67
2023/04/06 02:29:37;;;;;;;0.60;0.60;;;;;;;-1.60;79.98;101017.69;5047117;28;20029;-67
2023/04/06 02:32:03;;;;;;;0.50;0.50;;;;;;;-1.55;79.86;101023.84;5046714;28;20081;-67
2023/04/06 02:34:29;;;;;;;0.50;0.50;;;;;;;-1.58;79.73;101021.16;5046805;28;20546;-67
2023/04/06 02:36:55;;;;;;;0.60;0.60;;;;;;;-1.56;79.65;101026.31;5029006;28;20025;-66
2023/04/06 02:39:20;;;;;;;0.60;0.60;;;;;;;-1.58;79.70;101023.69;5046990;28;20049;-66
2023/04/06 02:41:46;;;;;;;0.60;0.60;;;;;;;-1.59;79.80;101018.53;5046614;28;20025;-67
2023/04/06 02:44:11;;;;;;;0.60;0.60;;;;;;;-1.63;79.67;101020.06;5046294;28;20049;-66
2023/04/06 02:46:37;;;;;;;0.60;0.60;;;;;;;-1.61;79.60;101018.44;5028497;28;20037;-66
2023/04/06 02:49:02;;;;;;;0.60;0.60;;;;;;;-1.60;79.83;101022.78;5046615;28;20041;-66
2023/04/06 02:51:28;;;;;;;0.60;0.60;;;;;;;-1.61;79.72;101018.44;5046805;28;20048;-66
2023/04/06 02:53:53;;;;;;;0.68;0.68;;;;;;;-1.66;79.89;101014.81;5046371;28;20056;-66
2023/04/06 02:56:20;;;;;;;0.50;0.50;;;;;;;-1.67;79.80;101016.47;5045391;28;20036;-66
2023/04/06 02:58:46;;;;;;;0.60;0.60;;;;;;;-1.66;79.86;101018.22;5028781;28;20029;-66
2023/04/06 03:01:11;;;;;;;0.57;0.57;;;;;;;-1.69;79.67;101015.53;5046179;28;20026;-66
2023/04/06 03:03:37;;;;;;;0.60;0.60;;;;;;;-1.71;79.85;101016.25;5046126;28;20035;-66
2023/04/06 03:06:03;;;;;;;0.60;0.60;;;;;;;-1.71;79.90;101016.25;5046175;28;20025;-67
2023/04/06 03:08:28;;;;;;;0.60;0.60;;;;;;;-1.70;79.97;101026.50;5046348;28;20025;-67
2023/04/06 03:10:54;;;;;;;0.60;0.60;;;;;;;-1.70;79.94;101028.16;5046149;28;20084;-67
2023/04/06 03:13:20;;;;;;;0.60;0.60;;;;;;;-1.75;79.91;101016.09;5046161;28;20541;-67
2023/04/06 03:15:45;;;;;;;0.60;0.60;;;;;;;-1.70;80.14;101029.06;5046029;28;20377;-67
2023/04/06 03:18:11;;;;;;;0.60;0.60;;;;;;;-1.72;79.93;101035.72;5045943;28;20034;-66
2023/04/06 03:20:36;;;;;;;0.60;0.60;;;;;;;-1.70;80.14;101028.16;5045944;28;20025;-66
2023/04/06 03:23:01;;;;;;;0.60;0.60;;;;;;;-1.73;79.97;101028.91;5045731;28;20113;-69
2023/04/06 03:25:27;;;;;;;0.60;0.60;;;;;;;-1.75;80.10;101023.72;5045984;28;20113;-68
2023/04/06 03:27:52;;;;;;;0.60;0.60;;;;;;;-1.72;80.09;101032.28;5028136;28;20021;-67
2023/04/06 03:30:18;;;;;;;0.60;0.60;;;;;;;-1.73;79.93;101035.66;5045781;28;20129;-68
2023/04/06 03:32:44;;;;;;;0.60;0.60;;;;;;;-1.75;79.96;101028.81;5027810;28;20024;-67
2023/04/06 03:35:09;;;;;;;0.60;0.60;;;;;;;-1.74;79.90;101034.75;5045724;28;20029;-68
2023/04/06 03:37:35;;;;;;;0.60;0.60;;;;;;;-1.70;80.06;101041.78;5028107;28;20021;-67
2023/04/06 03:40:01;;;;;;;0.60;0.60;;;;;;;-1.73;80.04;101036.53;5027721;28;20022;-67
2023/04/06 03:42:26;;;;;;;0.60;0.60;;;;;;;-1.70;79.91;101039.25;5024312;28;20057;-67
2023/04/06 03:44:52;;;;;;;0.60;0.60;;;;;;;-1.69;79.74;101040.97;5024415;28;20022;-67
2023/04/06 03:47:17;;;;;;;0.60;0.60;;;;;;;-1.77;79.82;101038.03;5024510;28;20022;-67
2023/04/06 03:49:43;;;;;;;0.60;0.60;;;;;;;-1.77;79.79;101045.69;5025772;28;20056;-66
2023/04/06 03:52:09;;;;;;;0.60;0.60;;;;;;;-1.76;79.70;101044.88;5025721;28;20032;-67
2023/04/06 03:54:35;;;;;;;0.57;0.57;;;;;;;-1.73;79.69;101043.28;5025486;28;20053;-66
2023/04/06 03:57:00;;;;;;;0.60;0.60;;;;;;;-1.76;79.84;101044.88;5025814;28;20048;-66
2023/04/06 03:59:26;;;;;;;0.60;0.60;;;;;;;-1.74;79.91;101047.50;5025749;28;20100;-67
2023/04/06 04:01:51;;;;;;;0.60;0.60;;;;;;;-1.75;79.54;101048.31;5025298;28;20022;-67
2023/04/06 04:04:17;;;;;;;0.60;0.60;;;;;;;-1.75;79.74;101045.75;5025469;28;20028;-66
2023/04/06 04:06:42;;;;;;;0.60;0.60;;;;;;;-1.77;79.60;101045.69;5024015;28;20085;-67
2023/04/06 04:09:08;;;;;;;0.60;0.60;;;;;;;-1.76;79.50;101044.88;5025522;28;20531;-67
2023/04/06 04:11:33;;;;;;;0.60;0.60;;;;;;;-1.83;79.51;101030.09;5025389;28;20045;-67
2023/04/06 04:13:59;;;;;;;0.60;0.60;;;;;;;-1.73;79.83;101041.63;5025407;28;20040;-66
2023/04/06 04:16:24;;;;;;;0.60;0.60;;;;;;;-1.73;79.79;101045.84;5025256;28;20051;-66
2023/04/06 04:18:50;;;;;;;0.52;0.52;;;;;;;-1.73;79.81;101044.19;5025244;28;20348;-66
2023/04/06 04:21:15;;;;;;;0.52;0.52;;;;;;;-1.74;79.70;101047.50;5025156;28;20026;-65
2023/04/06 04:23:41;;;;;;;0.60;0.60;;;;;;;-1.73;79.82;101045.84;5025067;28;20025;-66
2023/04/06 04:26:06;;;;;;;0.57;0.57;;;;;;;-1.72;79.91;101052.66;5023901;28;20477;-66
2023/04/06 04:28:32;;;;;;;0.60;0.60;;;;;;;-1.75;79.69;101041.56;5025126;28;20029;-67
2023/04/06 04:30:57;;;;;;;0.50;0.50;;;;;;;-1.68;79.74;101046.97;5023534;28;20108;-67
2023/04/06 04:33:22;;;;;;;0.60;0.60;;;;;;;-1.66;79.73;101045.38;5025219;28;20041;-66
2023/04/06 04:35:48;;;;;;;0.60;0.60;;;;;;;-1.66;79.78;101035.19;5025118;28;20397;-65
2023/04/06 04:38:13;;;;;;;0.60;0.60;;;;;;;-1.59;79.87;101046.53;5024692;28;20022;-66
2023/04/06 04:40:39;;;;;;;0.60;0.60;;;;;;;-1.61;79.67;101038.81;5024908;28;20049;-66
2023/04/06 04:43:05;;;;;;;0.60;0.60;;;;;;;-1.58;79.59;101040.69;5023222;28;20234;-63
2023/04/06 04:45:30;;;;;;;0.60;0.60;;;;;;;-1.54;79.75;101042.56;5025026;28;20025;-66
2023/04/06 04:47:55;;;;;;;0.60;0.60;;;;;;;-1.53;79.76;101046.84;5024873;28;20036;-66
2023/04/06 04:50:21;;;;;;;0.60;0.60;;;;;;;-1.45;79.80;101052.38;5023657;28;20037;-67
2023/04/06 04:52:46;;;;;;;0.50;0.50;;;;;;;-1.48;79.62;101039.44;5025085;28;20116;-67
2023/04/06 04:55:12;;;;;;;0.60;0.60;;;;;;;-1.34;79.72;101055.47;5024905;28;20458;-68
2023/04/06 04:57:37;;;;;;;0.60;0.60;;;;;;;-1.33;79.59;101050.44;5024974;28;20451;-67
2023/04/06 05:00:03;;;;;;;0.50;0.50;;;;;;;-1.27;79.65;101053.31;5024763;28;20033;-65
2023/04/06 05:02:29;;;;;;;0.60;0.60;;;;;;;-1.26;79.60;101043.97;5024555;28;20022;-65
2023/04/06 05:04:54;;;;;;;0.50;0.50;;;;;;;-1.20;79.72;101058.72;5024850;28;20034;-65
2023/04/06 05:07:20;;;;;;;0.50;0.50;;;;;;;-1.17;79.73;101057.19;5024900;28;20026;-66
2023/04/06 05:09:46;;;;;;;0.60;0.60;;;;;;;-1.16;79.73;101058.03;5024754;28;20022;-67
2023/04/06 05:12:12;;;;;;;0.70;0.70;;;;;;;-1.09;79.67;101060.13;5024566;28;20026;-67
2023/04/06 05:14:37;;;;;;;0.60;0.60;;;;;;;-1.07;79.81;101050.84;5024563;28;20097;-68
2023/04/06 05:17:03;;;;;;;0.60;0.60;;;;;;;-0.98;79.73;101054.66;5024550;28;20025;-67
2023/04/06 05:19:29;;;;;;;0.60;0.60;;;;;;;-0.90;79.25;101053.38;5026765;28;20030;-67
2023/04/06 05:21:55;;;;;;;0.60;0.60;;;;;;;-1.07;79.74;101047.47;5028665;28;20018;-67
2023/04/06 05:24:20;;;;;;;0.60;0.60;;;;;;;-1.02;79.96;101064.72;5028315;28;20028;-67
2023/04/06 05:26:46;;;;;;;0.60;0.60;;;;;;;-0.93;79.90;101065.97;5027100;28;20485;-66
2023/04/06 05:29:12;;;;;;;0.60;0.60;;;;;;;-0.86;79.73;101059.50;5026927;28;20030;-66
2023/04/06 05:31:37;;;;;;;0.60;0.60;;;;;;;-0.68;79.47;101051.88;5028301;28;20018;-67
2023/04/06 05:34:03;;;;;;;0.80;0.80;;;;;;;-0.81;79.30;101056.38;5027941;28;20503;-67
2023/04/06 05:36:28;;;;;;;0.60;0.60;;;;;;;-0.85;79.95;101054.50;5028452;28;20101;-67
2023/04/06 05:38:55;;;;;;;0.60;0.60;;;;;;;-0.78;80.12;101055.63;5026854;28;20449;-66
2023/04/06 05:41:21;;;;;;;0.50;0.50;;;;;;;-0.73;80.01;101061.84;5027470;28;20592;-66
2023/04/06 05:43:46;;;;;;;0.60;0.60;;;;;;;-0.75;79.96;101061.78;5026855;28;20050;-66
2023/04/06 05:46:12;;;;;;;0.60;0.60;;;;;;;-0.68;80.04;101060.41;5026367;28;20432;-66
2023/04/06 05:48:37;;;;;;;0.60;0.60;;;;;;;-0.61;80.21;101053.91;5028110;28;20026;-68
2023/04/06 05:51:06;;;;;;;0.50;0.50;;;;;;;-0.47;80.52;101046.91;5028142;28;20370;-65
2023/04/06 05:53:32;;;;;;;0.60;0.60;;;;;;;-0.39;80.37;101063.47;5026782;28;20029;-65
2023/04/06 05:56:00;;;;;;;0.50;0.50;;;;;;;-0.33;80.12;101062.88;5028365;28;20029;-64
2023/04/06 05:58:26;;;;;;;0.60;0.60;;;;;;;-0.26;80.26;101064.03;5028125;28;20026;-66
2023/04/06 06:00:56;;;;;;;0.60;0.60;;;;;;;-0.10;79.85;101060.53;5028051;28;20025;-64
2023/04/06 06:03:22;;;;;;;0.55;0.55;;;;;;;-0.15;79.85;101064.53;5027675;28;20045;-65
2023/04/06 06:05:48;;;;;;;0.60;0.60;;;;;;;-0.10;79.63;101060.53;5027868;28;20176;-64
2023/04/06 06:08:13;;;;;;;0.50;0.50;;;;;;;-0.14;79.64;101061.16;5027744;28;20048;-64
2023/04/06 06:10:40;;;;;;;0.60;0.60;;;;;;;-0.14;79.88;101062.06;5025572;28;20102;-64
2023/04/06 06:13:05;;;;;;;0.60;0.60;;;;;;;-0.02;79.73;101078.75;5027749;28;20022;-64
2023/04/06 06:15:31;;;;;;;0.60;0.60;;;;;;;-0.02;78.81;101064.28;5027733;28;20094;-65
2023/04/06 06:17:56;;;;;;;0.52;0.52;;;;;;;-0.11;79.09;101071.50;5027439;28;20025;-64
2023/04/06 06:20:21;;;;;;;0.60;0.60;;;;;;;-0.18;79.39;101064.41;5027573;28;20129;-66
2023/04/06 06:22:47;;;;;;;0.52;0.52;;;;;;;-0.09;79.12;101075.03;5027479;28;20029;-65
2023/04/06 06:25:13;;;;;;;0.55;0.55;;;;;;;-0.10;79.07;101072.41;5027430;28;20029;-65
2023/04/06 06:27:38;;;;;;;0.60;0.60;;;;;;;-0.14;78.74;101069.72;5027458;28;20030;-64
2023/04/06 06:30:06;;;;;;;0.60;0.60;;;;;;;-0.15;79.08;101069.63;5027267;28;20033;-65
2023/04/06 06:32:32;;;;;;;0.55;0.55;;;;;;;-0.13;78.64;101066.34;5027191;28;20021;-64
2023/04/06 06:34:57;;;;;;;1.15;1.15;;;;;;;-0.19;79.01;101077.97;5027352;28;20033;-65
2023/04/06 06:37:23;;;;;;;0.60;0.60;;;;;;;-0.27;79.20;101058.06;5027305;28;20018;-65
2023/04/06 06:39:48;;;;;;;0.50;0.50;;;;;;;-0.24;79.37;101053.91;5027471;28;20030;-64
2023/04/06 06:42:14;;;;;;;0.60;0.60;;;;;;;-0.16;79.26;101070.44;5029401;28;20068;-63
2023/04/06 06:44:39;;;;;;;0.60;0.60;;;;;;;-0.17;79.38;101067.03;5046946;28;20026;-64
2023/04/06 06:47:05;;;;;;;0.60;0.60;;;;;;;-0.27;79.52;101067.38;5046748;28;20496;-66
2023/04/06 06:49:30;;;;;;;0.52;0.52;;;;;;;-0.17;79.45;101073.78;5047089;28;20495;-64
2023/04/06 06:51:55;;;;;;;0.60;0.60;;;;;;;-0.16;79.54;101073.00;5027958;28;20047;-65
2023/04/06 06:54:21;;;;;;;0.60;0.60;;;;;;;-0.10;79.38;101077.50;5046383;28;20091;-65
2023/04/06 06:56:46;;;;;;;0.50;0.50;;;;;;;-0.23;80.01;101081.16;5046489;28;20423;-65
2023/04/06 06:59:12;;;;;;;0.50;0.50;;;;;;;-0.15;80.08;101079.84;5045907;28;20049;-64
2023/04/06 07:01:37;;;;;;;0.98;0.98;;;;;;;-0.17;80.40;101081.44;5045718;28;20421;-65
2023/04/06 07:04:03;;;;;;;1.95;1.85;;;;;;;-0.09;80.46;101079.25;5046407;28;20116;-65
2023/04/06 07:06:28;;;;;;;0.60;0.60;;;;;;;-0.09;80.52;101075.03;5046816;28;20024;-66
2023/04/06 07:08:54;;;;;;;0.60;0.60;;;;;;;-0.03;80.65;101082.97;5046202;28;20484;-66
2023/04/06 07:11:19;;;;;;;0.50;0.50;;;;;;;0.06;80.47;101076.53;5028905;28;20384;-66
2023/04/06 07:13:44;;;;;;;0.57;0.57;;;;;;;-0.02;80.63;101084.69;5046622;28;20047;-66
2023/04/06 07:16:10;;;;;;;0.50;0.50;;;;;;;0.07;80.56;101084.25;5046558;28;20022;-65
2023/04/06 07:18:35;;;;;;;0.50;0.50;;;;;;;0.02;80.88;101082.31;5046447;28;20049;-65
2023/04/06 07:21:01;;;;;;;0.60;0.60;;;;;;;-0.09;81.11;101074.13;5046491;28;20025;-65
2023/04/06 07:23:26;;;;;;;0.50;0.50;;;;;;;0.03;81.12;101082.38;5028507;28;20022;-67
2023/04/06 07:25:53;;;;;;;2.53;2.38;;;;;;;0.15;81.09;101078.63;5046420;28;20065;-67
2023/04/06 07:28:19;;;;;;;0.50;0.50;;;;;;;0.19;81.51;101072.88;5046221;28;20497;-68
2023/04/06 07:30:44;;;;;;;0.60;0.60;;;;;;;0.28;81.46;101080.03;5012170;28;20025;-66
2023/04/06 07:33:10;;;;;;;0.55;0.55;;;;;;;0.38;81.17;101084.78;5028355;28;20028;-66
2023/04/06 07:35:36;;;;;;;0.55;0.55;;;;;;;0.38;80.95;101086.44;5027966;28;20032;-67
2023/04/06 07:38:02;;;;;;;0.50;0.50;;;;;;;0.35;81.32;101092.31;5027810;28;20027;-68
2023/04/06 07:40:27;;;;;;;0.60;0.60;;;;;;;0.33;81.53;101093.91;5028266;28;20089;-67
2023/04/06 07:42:53;;;;;;;0.60;0.60;;;;;;;0.40;81.24;101084.84;5043002;28;20069;-67
2023/04/06 07:45:19;;;;;;;0.50;0.50;;;;;;;0.37;81.33;101085.56;5045510;28;20025;-66
2023/04/06 07:47:45;;;;;;;0.60;0.60;;;;;;;0.36;81.41;101094.94;5027739;28;20026;-63
2023/04/06 07:50:11;;;;;;;0.60;0.60;;;;;;;0.35;81.45;101087.19;5045725;28;20026;-63
2023/04/06 07:52:37;;;;;;;0.60;0.60;;;;;;;0.39;81.48;101089.06;5045713;28;20017;-62
2023/04/06 07:55:02;;;;;;;0.60;0.60;;;;;;;0.34;81.50;101088.88;5045411;28;20029;-63
2023/04/06 07:57:28;;;;;;;0.60;0.60;;;;;;;0.34;81.51;101095.66;5045808;28;20055;-63
2023/04/06 07:59:53;;;;;;;0.50;0.50;;;;;;;0.27;81.52;101088.53;5045730;28;20071;-63
2023/04/06 08:02:19;;;;;;;0.60;0.60;;;;;;;0.27;81.66;101085.97;5045371;28;20035;-63
2023/04/06 08:04:45;;;;;;;0.60;0.60;;;;;;;0.33;81.80;101093.91;5045389;28;20047;-62
2023/04/06 08:07:10;;;;;;;0.50;0.50;;;;;;;0.28;81.55;101087.72;5045430;28;20033;-63
2023/04/06 08:09:35;;;;;;;0.50;0.50;;;;;;;0.32;81.82;101092.16;5045496;28;20025;-63
2023/04/06 08:12:01;;;;;;;0.50;0.50;;;;;;;0.33;81.85;101089.69;5045312;28;20026;-63
2023/04/06 08:14:27;;;;;;;0.50;0.50;;;;;;;0.27;82.25;101085.97;5045175;28;20040;-62
2023/04/06 08:16:52;;;;;;;0.50;0.50;;;;;;;0.37;82.27;101098.34;5045278;28;20025;-63
2023/04/06 08:19:18;;;;;;;0.50;0.50;;;;;;;0.39;82.39;101101.84;5045353;28;20017;-63
2023/04/06 08:21:45;;;;;;;0.50;0.50;;;;;;;0.32;82.69;101103.25;5045235;28;20088;-61
2023/04/06 08:24:11;;;;;;;0.50;0.50;;;;;;;0.32;82.86;101104.94;5045337;28;20025;-62
2023/04/06 08:26:37;;;;;;;0.70;0.70;;;;;;;0.33;83.17;101099.91;5027334;28;20028;-62
2023/04/06 08:29:03;;;;;;;0.60;0.60;;;;;;;0.48;82.92;101106.47;5045168;28;20028;-63
2023/04/06 08:31:30;;;;;;;0.50;0.50;;;;;;;0.42;83.25;101106.19;5027116;28;20035;-61
2023/04/06 08:33:56;;;;;;;0.50;0.50;;;;;;;0.40;83.43;101110.41;5045145;28;20022;-62
2023/04/06 08:36:22;;;;;;;0.60;0.60;;;;;;;0.41;83.58;101117.25;5044661;28;20040;-61
2023/04/06 08:38:49;;;;;;;0.50;0.50;;;;;;;0.34;83.92;101105.88;5041874;28;20022;-60
2023/04/06 08:41:18;;;;;;;0.50;0.50;;;;;;;0.36;84.22;101122.16;5044474;28;20029;-61
2023/04/06 08:43:48;;;;;;;0.60;0.60;;;;;;;0.36;84.48;101117.91;5044968;28;20034;-61
2023/04/06 08:46:14;;;;;;;0.50;0.50;;;;;;;0.44;84.58;101118.25;5044941;28;20022;-62
2023/04/06 08:48:41;;;;;;;0.60;0.60;;;;;;;0.44;84.83;101119.94;5044772;28;20033;-60
2023/04/06 08:51:11;;;;;;;0.80;0.80;;;;;;;0.50;84.91;101117.66;5045064;28;20021;-61
2023/04/06 08:53:37;;;;;;;0.60;0.60;;;;;;;0.49;85.09;101116.78;5045513;28;20017;-61
2023/04/06 08:56:04;;;;;;;0.55;0.55;;;;;;;0.63;84.87;101118.19;5049166;28;20075;-61
2023/04/06 08:58:38;;;;;;;0.50;0.50;;;;;;;0.67;84.93;101131.16;5049116;28;20028;-61
2023/04/06 09:01:10;;;;;;;0.60;0.60;;;;;;;0.64;85.56;101125.06;5049106;28;20017;-62
2023/04/06 09:03:40;;;;;;;0.52;0.52;;;;;;;0.74;85.79;101129.75;5030705;28;20045;-61
2023/04/06 09:06:07;;;;;;;0.60;0.60;;;;;;;0.86;85.98;101137.09;5049052;28;20029;-61
2023/04/06 09:08:38;;;;;;;0.50;0.50;;;;;;;0.97;86.11;101138.44;5048906;28;20025;-60
2023/04/06 09:11:04;;;;;;;0.70;0.70;;;;;;;0.97;86.32;101133.31;5048897;28;20045;-62
2023/04/06 09:13:30;;;;;;;0.55;0.55;;;;;;;0.99;86.89;101133.41;5048573;28;20461;-61
2023/04/06 09:16:03;;;;;;;0.50;0.50;;;;;;;1.30;86.36;101118.44;5048714;28;20025;-61
2023/04/06 09:18:33;;;;;;;0.50;0.50;;;;;;;1.32;86.82;101132.19;5048469;28;20021;-62
2023/04/06 09:21:00;;;;;;;0.50;0.50;;;;;;;1.46;86.99;101135.28;5048775;28;20218;-61
2023/04/06 09:23:26;;;;;;;0.60;0.60;;;;;;;1.45;87.34;101131.00;5048127;28;20037;-61
2023/04/06 09:25:51;;;;;;;0.60;0.60;;;;;;;1.77;86.97;101136.53;5030571;28;20029;-61
2023/04/06 09:28:17;;;;;;;13.90;2.85;;;;;;;1.72;87.16;101128.69;5048429;28;20033;-61
2023/04/06 09:30:49;;;;;;;0.57;0.57;;;;;;;1.84;87.54;101132.53;5048411;28;20028;-61
2023/04/06 09:33:22;;;;;;;0.50;0.50;;;;;;;1.86;87.69;101136.03;5048039;28;20021;-62
2023/04/06 09:35:50;;;;;;;0.60;0.60;;;;;;;2.02;87.29;101132.38;5048207;28;20028;-61
2023/04/06 09:38:16;;;;;;;0.50;0.50;;;;;;;2.10;87.11;101140.34;5048237;28;20085;-61
2023/04/06 09:40:51;;;;;;;0.60;0.60;;;;;;;2.25;86.32;101139.19;5048223;28;20049;-62
2023/04/06 09:43:25;;;;;;;0.60;0.60;;;;;;;2.10;87.08;101141.22;5047680;28;20037;-61
2023/04/06 09:45:56;;;;;;;0.50;0.50;;;;;;;2.31;87.08;101142.88;5048055;28;20037;-61
2023/04/06 09:48:24;;;;;;;0.50;0.50;;;;;;;2.31;86.57;101148.00;5047949;28;20524;-60
2023/04/06 09:50:53;;;;;;;0.50;0.50;;;;;;;2.22;87.05;101120.31;5048090;28;20025;-61
2023/04/06 09:53:20;;;;;;;0.50;0.50;;;;;;;2.45;86.18;101135.69;5048180;28;20029;-61
2023/04/06 09:55:46;;;;;;;0.50;0.50;;;;;;;2.45;86.85;101152.72;5048013;28;20029;-61
2023/04/06 09:58:20;;;;;;;0.50;0.50;;;;;;;2.50;87.23;101146.09;5048051;28;20033;-61
2023/04/06 10:01:03;;;;;;;1.05;1.05;;;;;;;2.65;87.65;101152.59;5048020;28;20022;-60
2023/04/06 10:03:38;;;;;;;0.50;0.50;;;;;;;2.83;88.18;101150.69;5047723;28;20033;-61
2023/04/06 10:06:07;;;;;;;0.50;0.50;;;;;;;2.99;87.52;101151.22;5047513;28;20105;-61
2023/04/06 10:08:37;;;;;;;0.60;0.60;;;;;;;3.38;85.01;101144.84;5047817;28;20017;-63
2023/04/06 10:11:03;;;;;;;0.50;0.50;;;;;;;3.36;85.25;101149.06;5047590;28;20026;-62
2023/04/06 10:13:28;;;;;;;0.50;0.50;;;;;;;3.35;85.38;101150.72;5047681;28;20033;-61
2023/04/06 10:15:54;;;;;;;0.47;0.47;;;;;;;3.31;85.46;101146.34;5029941;28;20033;-62
2023/04/06 10:18:21;;;;;;;0.68;0.68;;;;;;;3.33;85.93;101136.13;5047168;28;20477;-61
2023/04/06 10:20:54;;;;;;;0.85;0.85;;;;;;;3.39;86.32;101146.59;5029717;28;20092;-61
2023/04/06 10:23:36;;;;;;;0.50;0.50;;;;;;;3.56;85.08;101138.56;5029659;28;20056;-61
2023/04/06 10:26:03;;;;;;;0.70;0.70;;;;;;;3.59;84.92;101143.81;5047146;28;20044;-61
2023/04/06 10:28:35;;;;;;;0.50;0.50;;;;;;;3.59;85.42;101139.53;5047356;28;20026;-61
2023/04/06 10:31:06;;;;;;;0.50;0.50;;;;;;;3.66;85.48;101139.75;5046702;28;20027;-60
2023/04/06 10:33:31;;;;;;;0.40;0.40;;;;;;;3.79;85.61;101146.13;5046778;28;20025;-60
2023/04/06 10:35:57;;;;;;;0.50;0.50;;;;;;;3.93;84.96;101139.72;5047005;28;20025;-63
2023/04/06 10:38:37;;;;;;;0.50;0.50;;;;;;;3.95;85.55;101144.91;5047162;28;20093;-62
2023/04/06 10:41:10;;;;;;;0.75;0.75;;;;;;;4.41;82.79;101145.41;5046758;28;20048;-61
2023/04/06 10:43:37;;;;;;;0.88;0.88;;;;;;;4.22;84.48;101142.31;5047028;28;20041;-61
2023/04/06 10:46:06;;;;;;;0.50;0.50;;;;;;;4.38;83.91;101150.47;5047191;28;20018;-61
2023/04/06 10:48:38;;;;;;;0.50;0.50;;;;;;;4.54;84.87;101143.19;5046840;28;20040;-62
2023/04/06 10:51:08;;;;;;;0.43;0.43;;;;;;;4.62;86.00;101146.84;5047101;28;20045;-62
2023/04/06 10:53:34;;;;;;;0.40;0.40;;;;;;;4.93;85.95;101147.72;5047049;28;20530;-63
2023/04/06 10:56:00;;;;;;;0.50;0.50;;;;;;;5.12;86.18;101157.59;5046939;28;20093;-62
2023/04/06 10:58:27;;;;;;;0.63;0.63;;;;;;;5.31;86.69;101153.81;5046914;28;20022;-61
2023/04/06 11:00:55;;;;;;;0.50;0.50;;;;;;;5.65;86.64;101156.34;5045688;28;20104;-62
2023/04/06 11:03:20;;;;;;;0.40;0.40;;;;;;;5.83;85.92;101153.34;5045175;28;20080;-61
2023/04/06 11:05:47;;;;;;;1.30;1.30;;;;;;;6.04;85.81;101157.22;5046436;28;20032;-61
2023/04/06 11:08:31;;;;;;;1.80;1.70;;;;;;;6.45;84.65;101144.41;5028904;28;20060;-61
2023/04/06 11:11:08;;;;;;;0.50;0.50;;;;;;;6.62;84.35;101146.47;5046378;28;20021;-62
2023/04/06 11:13:44;;;;;;;0.50;0.50;;;;;;;6.91;83.42;101151.31;5046766;28;20073;-63
2023/04/06 11:16:20;;;;;;;0.50;0.50;;;;;;;7.36;83.31;101148.66;5045822;28;20030;-64
2023/04/06 11:18:52;;;;;;;0.40;0.40;;;;;;;8.06;79.58;101144.56;5046372;28;20392;-63
2023/04/06 11:21:19;;;;;;;0.40;0.40;;;;;;;8.72;77.22;101150.56;5028196;28;20033;-64
2023/04/06 11:23:45;;;;;;;0.40;0.40;;;;;;;9.27;74.60;101143.34;5046118;28;20032;-66
2023/04/06 11:26:12;;;;;;;0.40;0.40;;;;;;;9.53;72.78;101147.88;5046261;28;20045;-67